createdAt,value
2023-05-03T00:00:16.899Z,9.15
2023-05-03T00:01:16.889Z,8.98
2023-05-03T00:02:16.866Z,8.89
2023-05-03T00:03:16.870Z,8.84
2023-05-03T00:04:16.877Z,8.80
2023-05-03T00:05:16.887Z,8.78
2023-05-03T00:06:16.865Z,8.77
2023-05-03T00:07:16.796Z,8.77
2023-05-03T00:08:16.846Z,8.77
2023-05-03T00:09:16.789Z,8.77
2023-05-03T00:10:16.764Z,8.77
2023-05-03T00:11:16.774Z,8.76
2023-05-03T00:12:16.742Z,8.75
2023-05-03T00:13:16.741Z,8.75
2023-05-03T00:14:16.716Z,8.74
2023-05-03T00:15:16.718Z,8.73
2023-05-03T00:16:16.734Z,8.73
2023-05-03T00:17:16.704Z,8.72
2023-05-03T00:18:16.689Z,8.71
2023-05-03T00:19:30.548Z,8.69
2023-05-03T00:20:17.658Z,8.68
2023-05-03T00:21:16.693Z,8.67
2023-05-03T00:22:16.651Z,8.66
2023-05-03T00:23:16.620Z,8.65
2023-05-03T00:24:16.616Z,8.65
2023-05-03T00:25:16.629Z,8.64
2023-05-03T00:26:16.588Z,8.63
2023-05-03T00:27:16.610Z,8.61
2023-05-03T00:28:16.563Z,8.60
2023-05-03T00:29:16.568Z,8.58
2023-05-03T00:30:16.551Z,8.57
2023-05-03T00:31:16.606Z,8.56
2023-05-03T00:32:16.528Z,8.55
2023-05-03T00:33:16.540Z,8.54
2023-05-03T00:34:16.518Z,8.54
2023-05-03T00:35:16.500Z,8.53
2023-05-03T00:36:16.480Z,8.52
2023-05-03T00:37:16.476Z,8.51
2023-05-03T00:38:16.494Z,8.49
2023-05-03T00:39:16.456Z,8.48
2023-05-03T00:40:16.461Z,8.48
2023-05-03T00:41:16.438Z,8.47
2023-05-03T00:42:16.413Z,8.46
2023-05-03T00:43:16.442Z,8.45
2023-05-03T00:44:16.400Z,8.44
2023-05-03T00:45:16.395Z,8.44
2023-05-03T00:46:17.631Z,8.43
2023-05-03T00:47:16.493Z,8.44
2023-05-03T00:48:16.371Z,8.44
2023-05-03T00:49:16.347Z,8.45
2023-05-03T00:50:16.342Z,8.44
2023-05-03T00:51:16.349Z,8.44
2023-05-03T00:52:16.317Z,8.42
2023-05-03T00:53:16.357Z,8.41
2023-05-03T00:54:16.292Z,8.40
2023-05-03T00:55:16.280Z,8.38
2023-05-03T00:56:16.265Z,8.37
2023-05-03T00:57:16.256Z,8.37
2023-05-03T00:58:16.277Z,8.36
2023-05-03T00:59:16.256Z,8.36
2023-05-03T01:00:16.246Z,8.35
2023-05-03T01:01:16.237Z,8.33
2023-05-03T01:02:16.203Z,8.30
2023-05-03T01:03:16.282Z,8.28
2023-05-03T01:04:16.224Z,8.25
2023-05-03T01:05:16.176Z,8.22
2023-05-03T01:06:16.214Z,8.20
2023-05-03T01:07:16.145Z,8.19
2023-05-03T01:08:16.143Z,8.17
2023-05-03T01:09:16.147Z,8.15
2023-05-03T01:10:16.136Z,8.13
2023-05-03T01:11:16.101Z,8.11
2023-05-03T01:12:16.094Z,8.08
2023-05-03T01:13:16.085Z,8.06
2023-05-03T01:14:16.094Z,8.04
2023-05-03T01:15:16.081Z,8.02
2023-05-03T01:16:16.096Z,8.01
2023-05-03T01:17:16.044Z,7.99
2023-05-03T01:18:16.052Z,7.98
2023-05-03T01:19:16.052Z,7.97
2023-05-03T01:20:16.012Z,7.95
2023-05-03T01:21:16.002Z,7.94
2023-05-03T01:22:15.993Z,7.93
2023-05-03T01:23:15.987Z,7.92
2023-05-03T01:24:15.970Z,7.91
2023-05-03T01:25:15.994Z,7.90
2023-05-03T01:26:15.943Z,7.89
2023-05-03T01:27:15.926Z,7.88
2023-05-03T01:28:15.995Z,7.87
2023-05-03T01:29:16.000Z,7.87
2023-05-03T01:30:15.910Z,7.86
2023-05-03T01:31:15.912Z,7.87
2023-05-03T01:32:15.875Z,7.86
2023-05-03T01:33:15.890Z,7.86
2023-05-03T01:34:15.878Z,7.86
2023-05-03T01:35:15.854Z,7.84
2023-05-03T01:36:15.832Z,7.80
2023-05-03T01:37:15.843Z,7.76
2023-05-03T01:38:15.814Z,7.73
2023-05-03T01:39:15.824Z,7.70
2023-05-03T01:40:15.796Z,7.67
2023-05-03T01:41:15.806Z,7.65
2023-05-03T01:42:15.772Z,7.64
2023-05-03T01:43:15.764Z,7.62
2023-05-03T01:44:15.775Z,7.61
2023-05-03T01:45:15.740Z,7.58
2023-05-03T01:46:15.844Z,7.55
2023-05-03T01:47:15.736Z,7.53
2023-05-03T01:48:15.731Z,7.51
2023-05-03T01:49:15.726Z,7.49
2023-05-03T01:50:15.693Z,7.47
2023-05-03T01:51:15.680Z,7.45
2023-05-03T01:52:15.674Z,7.44
2023-05-03T01:53:15.672Z,7.42
2023-05-03T01:54:15.658Z,7.41
2023-05-03T01:55:15.639Z,7.40
2023-05-03T01:56:15.622Z,7.39
2023-05-03T01:57:15.616Z,7.39
2023-05-03T01:58:15.618Z,7.38
2023-05-03T01:59:15.608Z,7.36
2023-05-03T02:00:15.582Z,7.35
2023-05-03T02:01:15.611Z,7.33
2023-05-03T02:02:15.557Z,7.32
2023-05-03T02:03:15.552Z,7.30
2023-05-03T02:04:15.636Z,7.28
2023-05-03T02:05:15.526Z,7.26
2023-05-03T02:06:15.587Z,7.22
2023-05-03T02:07:15.507Z,7.19
2023-05-03T02:08:15.505Z,7.15
2023-05-03T02:09:15.501Z,7.12
2023-05-03T02:10:15.479Z,7.09
2023-05-03T02:11:15.456Z,7.08
2023-05-03T02:12:15.478Z,7.07
2023-05-03T02:13:15.449Z,7.06
2023-05-03T02:14:15.451Z,7.06
2023-05-03T02:15:15.440Z,7.05
2023-05-03T02:16:15.435Z,7.03
2023-05-03T02:17:15.395Z,7.01
2023-05-03T02:18:15.412Z,6.99
2023-05-03T02:19:15.401Z,6.98
2023-05-03T02:20:15.378Z,6.96
2023-05-03T02:21:15.383Z,6.95
2023-05-03T02:22:15.358Z,6.94
2023-05-03T02:23:15.332Z,6.93
2023-05-03T02:24:15.332Z,6.92
2023-05-03T02:25:15.351Z,6.91
2023-05-03T02:26:15.296Z,6.91
2023-05-03T02:27:15.305Z,6.91
2023-05-03T02:28:15.289Z,6.92
2023-05-03T02:29:15.299Z,6.92
2023-05-03T02:30:15.256Z,6.92
2023-05-03T02:31:15.309Z,6.92
2023-05-03T02:32:15.230Z,6.91
2023-05-03T02:33:15.249Z,6.91
2023-05-03T02:34:15.225Z,6.91
2023-05-03T02:35:15.205Z,6.91
2023-05-03T02:36:15.189Z,6.91
2023-05-03T02:37:15.194Z,6.89
2023-05-03T02:38:15.166Z,6.87
2023-05-03T02:39:15.174Z,6.86
2023-05-03T02:40:15.150Z,6.85
2023-05-03T02:41:15.147Z,6.83
2023-05-03T02:42:15.131Z,6.81
2023-05-03T02:43:15.112Z,6.79
2023-05-03T02:44:15.119Z,6.78
2023-05-03T02:45:15.101Z,6.76
2023-05-03T02:46:15.176Z,6.74
2023-05-03T02:47:15.080Z,6.73
2023-05-03T02:48:15.064Z,6.73
2023-05-03T02:49:15.057Z,6.73
2023-05-03T02:50:15.047Z,6.73
2023-05-03T02:51:15.029Z,6.72
2023-05-03T02:52:15.040Z,6.70
2023-05-03T02:53:15.012Z,6.69
2023-05-03T02:54:14.996Z,6.68
2023-05-03T02:55:15.023Z,6.68
2023-05-03T02:56:14.980Z,6.68
2023-05-03T02:57:14.992Z,6.67
2023-05-03T02:58:14.960Z,6.66
2023-05-03T02:59:14.964Z,6.65
2023-05-03T03:00:14.958Z,6.63
2023-05-03T03:01:14.958Z,6.61
2023-05-03T03:02:14.909Z,6.58
2023-05-03T03:03:15.049Z,6.55
2023-05-03T03:04:14.896Z,6.53
2023-05-03T03:05:14.947Z,6.51
2023-05-03T03:06:14.951Z,6.48
2023-05-03T03:07:14.857Z,6.44
2023-05-03T03:08:14.924Z,6.39
2023-05-03T03:09:14.853Z,6.36
2023-05-03T03:10:14.847Z,6.34
2023-05-03T03:11:14.813Z,6.33
2023-05-03T03:12:14.815Z,6.32
2023-05-03T03:13:14.840Z,6.31
2023-05-03T03:14:14.780Z,6.29
2023-05-03T03:15:14.804Z,6.27
2023-05-03T03:16:14.818Z,6.25
2023-05-03T03:17:14.759Z,6.24
2023-05-03T03:18:14.742Z,6.24
2023-05-03T03:19:14.733Z,6.24
2023-05-03T03:20:14.748Z,6.24
2023-05-03T03:21:14.707Z,6.24
2023-05-03T03:22:14.692Z,6.25
2023-05-03T03:23:14.684Z,6.26
2023-05-03T03:24:14.677Z,6.26
2023-05-03T03:25:14.671Z,6.27
2023-05-03T03:26:14.726Z,6.28
2023-05-03T03:27:14.663Z,6.28
2023-05-03T03:28:14.640Z,6.28
2023-05-03T03:29:14.619Z,6.29
2023-05-03T03:30:14.656Z,6.30
2023-05-03T03:31:14.632Z,6.30
2023-05-03T03:32:14.628Z,6.30
2023-05-03T03:33:14.636Z,6.31
2023-05-03T03:34:14.568Z,6.31
2023-05-03T03:35:14.634Z,6.31
2023-05-03T03:36:14.576Z,6.30
2023-05-03T03:37:14.545Z,6.28
2023-05-03T03:38:14.532Z,6.27
2023-05-03T03:39:14.517Z,6.26
2023-05-03T03:40:14.536Z,6.25
2023-05-03T03:41:14.506Z,6.24
2023-05-03T03:42:14.493Z,6.24
2023-05-03T03:43:14.472Z,6.23
2023-05-03T03:44:14.458Z,6.22
2023-05-03T03:45:14.531Z,6.21
2023-05-03T03:46:14.571Z,6.20
2023-05-03T03:47:14.643Z,6.19
2023-05-03T03:48:14.482Z,6.18
2023-05-03T03:49:14.425Z,6.18
2023-05-03T03:50:14.439Z,6.17
2023-05-03T03:51:14.384Z,6.17
2023-05-03T03:52:14.380Z,6.16
2023-05-03T03:53:14.381Z,6.16
2023-05-03T03:54:14.364Z,6.16
2023-05-03T03:55:14.386Z,6.17
2023-05-03T03:56:14.331Z,6.17
2023-05-03T03:57:14.325Z,6.18
2023-05-03T03:58:14.312Z,6.19
2023-05-03T03:59:14.302Z,6.20
2023-05-03T04:00:14.349Z,6.22
2023-05-03T04:01:14.282Z,6.23
2023-05-03T04:02:14.276Z,6.25
2023-05-03T04:03:14.329Z,6.25
2023-05-03T04:04:14.364Z,6.26
2023-05-03T04:05:14.235Z,6.27
2023-05-03T04:06:14.283Z,6.28
2023-05-03T04:07:14.212Z,6.29
2023-05-03T04:08:14.220Z,6.30
2023-05-03T04:09:14.193Z,6.31
2023-05-03T04:10:14.186Z,6.32
2023-05-03T04:11:14.195Z,6.33
2023-05-03T04:12:14.158Z,6.34
2023-05-03T04:13:14.174Z,6.35
2023-05-03T04:14:14.141Z,6.36
2023-05-03T04:15:14.137Z,6.35
2023-05-03T04:16:14.134Z,6.35
2023-05-03T04:17:14.329Z,6.34
2023-05-03T04:18:14.138Z,6.32
2023-05-03T04:19:14.110Z,6.32
2023-05-03T04:20:14.090Z,6.31
2023-05-03T04:21:14.085Z,6.31
2023-05-03T04:22:14.055Z,6.31
2023-05-03T04:23:14.046Z,6.32
2023-05-03T04:24:14.035Z,6.32
2023-05-03T04:25:14.017Z,6.32
2023-05-03T04:26:27.436Z,6.32
2023-05-03T04:27:15.001Z,6.33
2023-05-03T04:28:13.983Z,6.33
2023-05-03T04:29:13.984Z,6.33
2023-05-03T04:30:13.965Z,6.33
2023-05-03T04:31:14.016Z,6.33
2023-05-03T04:32:13.953Z,6.34
2023-05-03T04:33:13.990Z,6.34
2023-05-03T04:34:13.924Z,6.35
2023-05-03T04:35:13.914Z,6.35
2023-05-03T04:36:13.920Z,6.35
2023-05-03T04:37:13.894Z,6.35
2023-05-03T04:38:13.881Z,6.35
2023-05-03T04:39:13.870Z,6.35
2023-05-03T04:40:13.907Z,6.34
2023-05-03T04:41:15.504Z,6.34
2023-05-03T04:42:14.030Z,6.34
2023-05-03T04:43:13.847Z,6.34
2023-05-03T04:44:13.819Z,6.35
2023-05-03T04:45:13.837Z,6.35
2023-05-03T04:46:13.881Z,6.35
2023-05-03T04:47:13.803Z,6.34
2023-05-03T04:48:13.905Z,6.32
2023-05-03T04:49:13.764Z,6.31
2023-05-03T04:50:13.759Z,6.31
2023-05-03T04:51:13.771Z,6.30
2023-05-03T04:52:13.742Z,6.29
2023-05-03T04:53:13.717Z,6.28
2023-05-03T04:54:13.710Z,6.28
2023-05-03T04:55:13.752Z,6.28
2023-05-03T04:56:13.703Z,6.29
2023-05-03T04:57:13.688Z,6.30
2023-05-03T04:58:13.675Z,6.31
2023-05-03T04:59:13.714Z,6.32
2023-05-03T05:00:13.658Z,6.33
2023-05-03T05:01:13.676Z,6.34
2023-05-03T05:02:13.682Z,6.35
2023-05-03T05:03:13.685Z,6.36
2023-05-03T05:04:13.699Z,6.37
2023-05-03T05:05:13.662Z,6.38
2023-05-03T05:06:13.606Z,6.39
2023-05-03T05:07:13.592Z,6.40
2023-05-03T05:08:13.570Z,6.40
2023-05-03T05:09:13.539Z,6.40
2023-05-03T05:10:13.541Z,6.40
2023-05-03T05:11:13.542Z,6.40
2023-05-03T05:12:13.538Z,6.40
2023-05-03T05:13:13.508Z,6.39
2023-05-03T05:14:13.484Z,6.39
2023-05-03T05:15:13.506Z,6.39
2023-05-03T05:16:13.468Z,6.40
2023-05-03T05:17:13.506Z,6.41
2023-05-03T05:18:13.502Z,6.42
2023-05-03T05:19:13.428Z,6.43
2023-05-03T05:20:13.540Z,6.44
2023-05-03T05:21:13.458Z,6.45
2023-05-03T05:22:13.410Z,6.46
2023-05-03T05:23:13.390Z,6.47
2023-05-03T05:24:13.383Z,6.48
2023-05-03T05:25:13.364Z,6.49
2023-05-03T05:26:13.383Z,6.50
2023-05-03T05:27:13.359Z,6.52
2023-05-03T05:28:13.329Z,6.54
2023-05-03T05:29:13.345Z,6.56
2023-05-03T05:30:13.338Z,6.57
2023-05-03T05:31:13.447Z,6.59
2023-05-03T05:32:13.308Z,6.61
2023-05-03T05:33:13.330Z,6.63
2023-05-03T05:34:13.271Z,6.65
2023-05-03T05:35:13.295Z,6.66
2023-05-03T05:36:13.284Z,6.67
2023-05-03T05:37:13.253Z,6.68
2023-05-03T05:38:13.233Z,6.69
2023-05-03T05:39:13.221Z,6.70
2023-05-03T05:40:13.218Z,6.71
2023-05-03T05:41:13.197Z,6.73
2023-05-03T05:42:13.219Z,6.75
2023-05-03T05:43:13.187Z,6.77
2023-05-03T05:44:13.187Z,6.80
2023-05-03T05:45:13.214Z,6.83
2023-05-03T05:46:13.147Z,6.86
2023-05-03T05:47:13.186Z,6.87
2023-05-03T05:48:13.179Z,6.88
2023-05-03T05:49:13.127Z,6.88
2023-05-03T05:50:18.277Z,6.87
2023-05-03T05:51:14.089Z,6.87
2023-05-03T05:52:13.102Z,6.87
2023-05-03T05:53:13.070Z,6.86
2023-05-03T05:54:13.061Z,6.86
2023-05-03T05:55:13.069Z,6.86
2023-05-03T05:56:13.058Z,6.88
2023-05-03T05:57:13.024Z,6.90
2023-05-03T05:58:13.092Z,6.92
2023-05-03T05:59:13.011Z,6.94
2023-05-03T06:00:12.995Z,6.95
2023-05-03T06:01:13.016Z,6.96
2023-05-03T06:02:13.069Z,6.98
2023-05-03T06:03:12.987Z,6.99
2023-05-03T06:04:12.968Z,7.01
2023-05-03T06:05:13.117Z,7.03
2023-05-03T06:06:12.956Z,7.05
2023-05-03T06:07:12.945Z,7.09
2023-05-03T06:08:12.922Z,7.14
2023-05-03T06:09:23.494Z,7.21
2023-05-03T06:10:16.560Z,7.29
2023-05-03T06:11:12.874Z,7.36
2023-05-03T06:12:12.896Z,7.43
2023-05-03T06:13:12.862Z,7.49
2023-05-03T06:14:12.868Z,7.54
2023-05-03T06:15:12.860Z,7.60
2023-05-03T06:16:12.854Z,7.66
2023-05-03T06:17:12.935Z,7.73
2023-05-03T06:18:12.870Z,7.80
2023-05-03T06:19:12.798Z,7.87
2023-05-03T06:20:12.816Z,7.95
2023-05-03T06:21:12.790Z,8.03
2023-05-03T06:22:12.774Z,8.11
2023-05-03T06:23:12.747Z,8.17
2023-05-03T06:24:12.752Z,8.23
2023-05-03T06:25:14.094Z,8.28
2023-05-03T06:26:12.719Z,8.32
2023-05-03T06:27:12.726Z,8.37
2023-05-03T06:28:12.709Z,8.41
2023-05-03T06:29:12.678Z,8.45
2023-05-03T06:30:12.690Z,8.49
2023-05-03T06:31:12.735Z,8.53
2023-05-03T06:32:12.670Z,8.57
2023-05-03T06:33:12.721Z,8.62
2023-05-03T06:34:12.637Z,8.67
2023-05-03T06:35:12.660Z,8.71
2023-05-03T06:36:12.605Z,8.76
2023-05-03T06:37:12.624Z,8.81
2023-05-03T06:38:12.585Z,8.86
2023-05-03T06:39:12.574Z,8.90
2023-05-03T06:40:12.585Z,8.96
2023-05-03T06:41:12.551Z,9.02
2023-05-03T06:42:12.582Z,9.06
2023-05-03T06:43:12.532Z,9.11
2023-05-03T06:44:12.562Z,9.15
2023-05-03T06:45:12.509Z,9.18
2023-05-03T06:46:12.535Z,9.23
2023-05-03T06:47:12.513Z,9.27
2023-05-03T06:48:12.593Z,9.31
2023-05-03T06:49:12.467Z,9.34
2023-05-03T06:50:12.504Z,9.37
2023-05-03T06:51:12.488Z,9.40
2023-05-03T06:52:12.471Z,9.42
2023-05-03T06:53:12.442Z,9.45
2023-05-03T06:54:12.415Z,9.48
2023-05-03T06:55:12.412Z,9.50
2023-05-03T06:56:12.414Z,9.52
2023-05-03T06:57:12.421Z,9.54
2023-05-03T06:58:12.435Z,9.56
2023-05-03T06:59:12.388Z,9.58
2023-05-03T07:00:12.371Z,9.59
2023-05-03T07:01:12.418Z,9.61
2023-05-03T07:02:12.374Z,9.64
2023-05-03T07:03:12.435Z,9.67
2023-05-03T07:04:12.423Z,9.70
2023-05-03T07:05:12.290Z,9.73
2023-05-03T07:06:12.304Z,9.76
2023-05-03T07:07:12.347Z,9.78
2023-05-03T07:08:12.313Z,9.80
2023-05-03T07:09:12.253Z,9.81
2023-05-03T07:10:12.240Z,9.83
2023-05-03T07:11:12.248Z,9.87
2023-05-03T07:12:12.313Z,9.94
2023-05-03T07:13:12.223Z,10.04
2023-05-03T07:14:12.203Z,10.13
2023-05-03T07:15:12.190Z,10.20
2023-05-03T07:16:12.243Z,10.25
2023-05-03T07:17:12.171Z,10.29
2023-05-03T07:18:12.240Z,10.33
2023-05-03T07:19:12.138Z,10.36
2023-05-03T07:20:12.213Z,10.37
2023-05-03T07:21:12.121Z,10.38
2023-05-03T07:22:12.122Z,10.40
2023-05-03T07:23:12.125Z,10.41
2023-05-03T07:24:12.092Z,10.43
2023-05-03T07:25:12.151Z,10.46
2023-05-03T07:26:12.086Z,10.52
2023-05-03T07:27:12.121Z,10.58
2023-05-03T07:28:12.045Z,10.65
2023-05-03T07:29:12.073Z,10.73
2023-05-03T07:30:12.096Z,10.82
2023-05-03T07:31:12.034Z,10.89
2023-05-03T07:32:12.115Z,10.94
2023-05-03T07:33:12.133Z,10.97
2023-05-03T07:34:12.055Z,10.99
2023-05-03T07:35:11.973Z,11.02
2023-05-03T07:36:12.071Z,11.07
2023-05-03T07:37:11.961Z,11.11
2023-05-03T07:38:12.033Z,11.15
2023-05-03T07:39:11.938Z,11.19
2023-05-03T07:40:11.938Z,11.24
2023-05-03T07:41:11.897Z,11.29
2023-05-03T07:42:11.943Z,11.32
2023-05-03T07:43:11.936Z,11.34
2023-05-03T07:44:11.884Z,11.35
2023-05-03T07:45:11.884Z,11.36
2023-05-03T07:46:11.867Z,11.35
2023-05-03T07:47:11.916Z,11.35
2023-05-03T07:48:11.911Z,11.35
2023-05-03T07:49:11.817Z,11.36
2023-05-03T07:50:11.807Z,11.37
2023-05-03T07:51:11.815Z,11.38
2023-05-03T07:52:11.795Z,11.41
2023-05-03T07:53:11.806Z,11.46
2023-05-03T07:54:11.758Z,11.51
2023-05-03T07:55:11.768Z,11.58
2023-05-03T07:56:11.767Z,11.65
2023-05-03T07:57:11.732Z,11.69
2023-05-03T07:58:11.886Z,11.73
2023-05-03T07:59:11.782Z,11.75
2023-05-03T08:00:11.703Z,11.77
2023-05-03T08:01:11.679Z,11.80
2023-05-03T08:02:11.834Z,11.83
2023-05-03T08:03:11.902Z,11.86
2023-05-03T08:04:11.971Z,11.91
2023-05-03T08:05:11.793Z,11.96
2023-05-03T08:06:11.689Z,12.02
2023-05-03T08:07:11.622Z,12.09
2023-05-03T08:08:11.634Z,12.14
2023-05-03T08:09:11.625Z,12.19
2023-05-03T08:10:11.628Z,12.21
2023-05-03T08:11:11.590Z,12.21
2023-05-03T08:12:11.574Z,12.21
2023-05-03T08:13:11.587Z,12.23
2023-05-03T08:14:11.567Z,12.28
2023-05-03T08:15:11.542Z,12.36
2023-05-03T08:16:11.565Z,12.46
2023-05-03T08:17:11.540Z,12.57
2023-05-03T08:18:11.586Z,12.67
2023-05-03T08:19:11.501Z,12.76
2023-05-03T08:20:11.483Z,12.83
2023-05-03T08:21:11.468Z,12.90
2023-05-03T08:22:11.515Z,12.96
2023-05-03T08:23:11.487Z,13.03
2023-05-03T08:24:11.449Z,13.08
2023-05-03T08:25:11.430Z,13.09
2023-05-03T08:26:11.523Z,13.06
2023-05-03T08:27:11.415Z,13.04
2023-05-03T08:28:11.442Z,13.04
2023-05-03T08:29:11.410Z,13.05
2023-05-03T08:30:11.374Z,13.04
2023-05-03T08:31:11.416Z,13.03
2023-05-03T08:32:11.360Z,13.03
2023-05-03T08:33:11.469Z,13.04
2023-05-03T08:34:11.330Z,13.06
2023-05-03T08:35:11.350Z,13.06
2023-05-03T08:36:11.342Z,13.07
2023-05-03T08:37:11.311Z,13.09
2023-05-03T08:38:11.353Z,13.13
2023-05-03T08:39:11.296Z,13.18
2023-05-03T08:40:11.279Z,13.22
2023-05-03T08:41:11.253Z,13.25
2023-05-03T08:42:11.263Z,13.31
2023-05-03T08:43:11.315Z,13.36
2023-05-03T08:44:11.228Z,13.38
2023-05-03T08:45:11.217Z,13.35
2023-05-03T08:46:11.221Z,13.29
2023-05-03T08:47:11.244Z,13.24
2023-05-03T08:48:11.284Z,13.20
2023-05-03T08:49:11.230Z,13.17
2023-05-03T08:50:11.167Z,13.17
2023-05-03T08:51:11.161Z,13.19
2023-05-03T08:52:11.140Z,13.19
2023-05-03T08:53:11.119Z,13.12
2023-05-03T08:54:11.156Z,13.05
2023-05-03T08:55:11.118Z,12.99
2023-05-03T08:56:11.095Z,12.95
2023-05-03T08:57:11.085Z,12.93
2023-05-03T08:58:11.120Z,12.91
2023-05-03T08:59:11.098Z,12.91
2023-05-03T09:00:11.080Z,12.92
2023-05-03T09:01:11.036Z,12.96
2023-05-03T09:02:11.072Z,13.03
2023-05-03T09:03:11.093Z,13.09
2023-05-03T09:04:11.183Z,13.15
2023-05-03T09:05:11.049Z,13.18
2023-05-03T09:06:11.088Z,13.21
2023-05-03T09:07:10.971Z,13.23
2023-05-03T09:08:11.002Z,13.24
2023-05-03T09:09:10.986Z,13.23
2023-05-03T09:10:10.947Z,13.23
2023-05-03T09:11:10.928Z,13.25
2023-05-03T09:12:10.934Z,13.27
2023-05-03T09:13:10.984Z,13.26
2023-05-03T09:14:10.929Z,13.24
2023-05-03T09:15:10.880Z,13.24
2023-05-03T09:16:10.903Z,13.28
2023-05-03T09:17:10.862Z,13.36
2023-05-03T09:18:11.059Z,13.45
2023-05-03T09:19:10.868Z,13.51
2023-05-03T09:20:10.834Z,13.54
2023-05-03T09:21:10.836Z,13.53
2023-05-03T09:22:10.812Z,13.47
2023-05-03T09:23:10.815Z,13.35
2023-05-03T09:24:31.808Z,13.20
2023-05-03T09:25:10.803Z,13.07
2023-05-03T09:26:10.798Z,12.95
2023-05-03T09:27:10.762Z,12.86
2023-05-03T09:28:10.764Z,12.78
2023-05-03T09:29:10.778Z,12.71
2023-05-03T09:30:10.736Z,12.66
2023-05-03T09:31:11.550Z,12.62
2023-05-03T09:32:10.816Z,12.59
2023-05-03T09:33:10.754Z,12.56
2023-05-03T09:34:10.702Z,12.54
2023-05-03T09:35:10.714Z,12.54
2023-05-03T09:36:10.666Z,12.57
2023-05-03T09:37:10.644Z,12.61
2023-05-03T09:38:10.638Z,12.63
2023-05-03T09:39:10.649Z,12.62
2023-05-03T09:40:10.611Z,12.59
2023-05-03T09:41:10.598Z,12.55
2023-05-03T09:42:10.605Z,12.51
2023-05-03T09:43:10.631Z,12.47
2023-05-03T09:44:10.598Z,12.46
2023-05-03T09:45:10.570Z,12.47
2023-05-03T09:46:10.738Z,12.52
2023-05-03T09:47:10.555Z,12.60
2023-05-03T09:48:10.570Z,12.69
2023-05-03T09:49:10.551Z,12.75
2023-05-03T09:50:10.522Z,12.77
2023-05-03T09:51:10.500Z,12.75
2023-05-03T09:52:10.493Z,12.72
2023-05-03T09:53:10.489Z,12.74
2023-05-03T09:54:10.488Z,12.82
2023-05-03T09:55:10.462Z,12.96
2023-05-03T09:56:10.439Z,13.09
2023-05-03T09:57:10.438Z,13.20
2023-05-03T09:58:10.485Z,13.29
2023-05-03T09:59:10.443Z,13.35
2023-05-03T10:00:10.407Z,13.40
2023-05-03T10:01:10.463Z,13.44
2023-05-03T10:02:10.379Z,13.45
2023-05-03T10:03:10.513Z,13.41
2023-05-03T10:04:10.424Z,13.34
2023-05-03T10:05:10.354Z,13.24
2023-05-03T10:06:10.380Z,13.14
2023-05-03T10:07:11.300Z,13.05
2023-05-03T10:08:10.323Z,12.99
2023-05-03T10:09:10.328Z,12.96
2023-05-03T10:10:10.356Z,12.94
2023-05-03T10:11:10.290Z,12.96
2023-05-03T10:12:10.310Z,13.00
2023-05-03T10:13:11.987Z,13.06
2023-05-03T10:14:10.289Z,13.13
2023-05-03T10:15:10.246Z,13.22
2023-05-03T10:16:10.247Z,13.31
2023-05-03T10:17:10.248Z,13.40
2023-05-03T10:18:10.258Z,13.47
2023-05-03T10:19:12.031Z,13.54
2023-05-03T10:20:10.203Z,13.60
2023-05-03T10:21:10.232Z,13.65
2023-05-03T10:22:10.185Z,13.69
2023-05-03T10:23:10.165Z,13.71
2023-05-03T10:24:10.138Z,13.71
2023-05-03T10:25:10.179Z,13.70
2023-05-03T10:26:10.120Z,13.68
2023-05-03T10:27:10.127Z,13.65
2023-05-03T10:28:10.217Z,13.61
2023-05-03T10:29:10.094Z,13.56
2023-05-03T10:30:10.137Z,13.52
2023-05-03T10:31:10.110Z,13.51
2023-05-03T10:32:10.078Z,13.54
2023-05-03T10:33:10.181Z,13.58
2023-05-03T10:34:10.057Z,13.64
2023-05-03T10:35:10.069Z,13.71
2023-05-03T10:36:10.006Z,13.78
2023-05-03T10:37:10.001Z,13.85
2023-05-03T10:38:09.993Z,13.89
2023-05-03T10:39:09.976Z,13.91
2023-05-03T10:40:10.011Z,13.91
2023-05-03T10:41:09.997Z,13.90
2023-05-03T10:42:09.940Z,13.90
2023-05-03T10:43:09.951Z,13.89
2023-05-03T10:44:09.946Z,13.88
2023-05-03T10:45:09.929Z,13.87
2023-05-03T10:46:09.920Z,13.85
2023-05-03T10:47:09.914Z,13.82
2023-05-03T10:48:09.945Z,13.77
2023-05-03T10:49:09.883Z,13.70
2023-05-03T10:50:09.920Z,13.63
2023-05-03T10:51:09.853Z,13.58
2023-05-03T10:52:09.831Z,13.56
2023-05-03T10:53:09.842Z,13.56
2023-05-03T10:54:09.817Z,13.57
2023-05-03T10:55:09.821Z,13.60
2023-05-03T10:56:09.792Z,13.64
2023-05-03T10:57:09.775Z,13.69
2023-05-03T10:58:09.770Z,13.74
2023-05-03T10:59:09.759Z,13.78
2023-05-03T11:00:09.780Z,13.82
2023-05-03T11:01:09.769Z,13.86
2023-05-03T11:02:09.777Z,13.91
2023-05-03T11:03:09.739Z,13.96
2023-05-03T11:04:09.742Z,13.98
2023-05-03T11:05:09.809Z,13.95
2023-05-03T11:06:09.733Z,13.89
2023-05-03T11:07:09.672Z,13.83
2023-05-03T11:08:09.664Z,13.78
2023-05-03T11:09:09.678Z,13.75
2023-05-03T11:10:09.654Z,13.75
2023-05-03T11:11:09.930Z,13.76
2023-05-03T11:12:09.654Z,13.81
2023-05-03T11:13:09.623Z,13.86
2023-05-03T11:14:09.611Z,13.90
2023-05-03T11:15:09.638Z,13.91
2023-05-03T11:16:09.575Z,13.89
2023-05-03T11:17:09.571Z,13.86
2023-05-03T11:18:09.663Z,13.80
2023-05-03T11:19:09.549Z,13.76
2023-05-03T11:20:09.593Z,13.73
2023-05-03T11:21:09.530Z,13.71
2023-05-03T11:22:09.545Z,13.67
2023-05-03T11:23:09.510Z,13.64
2023-05-03T11:24:09.550Z,13.62
2023-05-03T11:25:09.509Z,13.61
2023-05-03T11:26:09.468Z,13.62
2023-05-03T11:27:09.461Z,13.64
2023-05-03T11:28:09.447Z,13.68
2023-05-03T11:29:09.430Z,13.72
2023-05-03T11:30:09.449Z,13.76
2023-05-03T11:31:09.404Z,13.79
2023-05-03T11:32:24.181Z,13.82
2023-05-03T11:33:09.500Z,13.83
2023-05-03T11:34:09.385Z,13.85
2023-05-03T11:35:09.405Z,13.89
2023-05-03T11:36:09.384Z,13.92
2023-05-03T11:37:09.348Z,13.95
2023-05-03T11:38:09.348Z,13.97
2023-05-03T11:39:09.341Z,13.98
2023-05-03T11:40:09.339Z,13.99
2023-05-03T11:41:09.312Z,13.99
2023-05-03T11:42:09.301Z,13.99
2023-05-03T11:43:09.427Z,13.99
2023-05-03T11:45:10.555Z,13.96
2023-05-03T11:46:09.420Z,13.93
2023-05-03T11:47:09.360Z,13.91
2023-05-03T11:48:09.306Z,13.92
2023-05-03T11:49:09.288Z,13.94
2023-05-03T11:50:09.225Z,13.97
2023-05-03T11:51:09.234Z,13.99
2023-05-03T11:52:09.260Z,14.01
2023-05-03T11:53:09.176Z,14.02
2023-05-03T11:54:23.352Z,14.02
2023-05-03T11:55:10.172Z,14.02
2023-05-03T11:56:09.155Z,14.02
2023-05-03T11:57:09.198Z,14.04
2023-05-03T11:58:16.649Z,14.05
2023-05-03T11:59:09.112Z,14.06
2023-05-03T12:00:09.118Z,14.06
2023-05-03T12:01:09.165Z,14.05
2023-05-03T12:02:09.163Z,14.04
2023-05-03T12:03:09.174Z,14.02
2023-05-03T12:04:09.159Z,14.01
2023-05-03T12:05:09.950Z,14.00
2023-05-03T12:06:10.150Z,13.99
2023-05-03T12:07:10.368Z,13.97
2023-05-03T12:08:10.352Z,13.96
2023-05-03T12:09:10.007Z,13.94
2023-05-03T12:10:15.459Z,13.90
2023-05-03T12:11:10.638Z,13.83
2023-05-03T12:12:10.978Z,13.75
2023-05-03T12:13:09.604Z,13.68
2023-05-03T12:14:10.573Z,13.62
2023-05-03T12:15:09.636Z,13.59
2023-05-03T12:17:11.240Z,13.59
2023-05-03T12:18:09.614Z,13.63
2023-05-03T12:19:09.494Z,13.65
2023-05-03T12:20:41.856Z,13.65
2023-05-03T12:21:31.049Z,13.62
2023-05-03T12:22:24.779Z,13.57
2023-05-03T12:23:10.766Z,13.51
2023-05-03T12:24:10.695Z,13.46
2023-05-03T12:25:09.934Z,13.40
2023-05-03T12:26:10.122Z,13.36
2023-05-03T12:27:08.921Z,13.33
2023-05-03T12:29:09.930Z,13.33
2023-05-03T12:30:09.436Z,13.35
2023-05-03T12:31:08.904Z,13.39
2023-05-03T12:32:10.910Z,13.43
2023-05-03T12:33:10.348Z,13.47
2023-05-03T12:35:13.902Z,13.54
2023-05-03T12:36:09.838Z,13.58
2023-05-03T12:37:11.193Z,13.62
2023-05-03T12:38:09.761Z,13.66
2023-05-03T12:39:10.125Z,13.69
2023-05-03T12:40:31.804Z,13.72
2023-05-03T12:41:09.733Z,13.74
2023-05-03T12:42:09.608Z,13.74
2023-05-03T12:43:08.762Z,13.73
2023-05-03T12:44:10.633Z,13.73
2023-05-03T12:46:32.176Z,13.72
2023-05-03T12:47:10.175Z,13.72
2023-05-03T12:48:08.870Z,13.72
2023-05-03T12:49:09.214Z,13.72
2023-05-03T12:50:12.262Z,13.71
2023-05-03T12:51:19.583Z,13.70
2023-05-03T12:53:10.192Z,13.71
2023-05-03T12:54:10.355Z,13.72
2023-05-03T12:55:11.047Z,13.73
2023-05-03T12:56:13.033Z,13.75
2023-05-03T12:57:14.697Z,13.77
2023-05-03T12:59:39.103Z,13.81
2023-05-03T13:00:14.380Z,13.80
2023-05-03T13:03:14.740Z,13.78
2023-05-03T13:03:20.893Z,13.76
2023-05-03T13:04:42.532Z,13.75
2023-05-03T13:05:12.428Z,13.75
2023-05-03T13:06:13.399Z,13.76
2023-05-03T13:07:13.398Z,13.75
2023-05-03T13:08:10.547Z,13.74
2023-05-03T13:09:08.584Z,13.73
2023-05-03T13:11:08.430Z,13.70
2023-05-03T13:12:08.490Z,13.69
2023-05-03T13:13:08.331Z,13.69
2023-05-03T13:14:08.349Z,13.68
2023-05-03T13:15:08.472Z,13.68